sensor_id;sensor_type;location;lat;lon;timestamp;temperature;humidity
55785;DHT22;41709;52.536;5.688;2023-04-23T00:02:12;8.90;91.60
55785;DHT22;41709;52.536;5.688;2023-04-23T00:04:49;8.90;91.60
55785;DHT22;41709;52.536;5.688;2023-04-23T00:07:15;8.90;91.60
55785;DHT22;41709;52.536;5.688;2023-04-23T00:09:44;8.90;91.60
55785;DHT22;41709;52.536;5.688;2023-04-23T00:12:10;8.90;91.60
55785;DHT22;41709;52.536;5.688;2023-04-23T00:14:36;8.80;91.50
55785;DHT22;41709;52.536;5.688;2023-04-23T00:17:02;8.80;91.50
55785;DHT22;41709;52.536;5.688;2023-04-23T00:19:28;8.80;91.50
55785;DHT22;41709;52.536;5.688;2023-04-23T00:21:53;8.80;91.80
55785;DHT22;41709;52.536;5.688;2023-04-23T00:24:19;8.80;91.50
55785;DHT22;41709;52.536;5.688;2023-04-23T00:26:45;8.80;91.50
55785;DHT22;41709;52.536;5.688;2023-04-23T00:29:10;8.80;91.50
55785;DHT22;41709;52.536;5.688;2023-04-23T00:31:36;8.80;91.50
55785;DHT22;41709;52.536;5.688;2023-04-23T00:34:02;8.80;91.60
55785;DHT22;41709;52.536;5.688;2023-04-23T00:36:27;8.80;91.60
55785;DHT22;41709;52.536;5.688;2023-04-23T00:38:53;8.70;91.60
55785;DHT22;41709;52.536;5.688;2023-04-23T00:41:18;8.80;91.70
55785;DHT22;41709;52.536;5.688;2023-04-23T00:43:44;8.70;91.70
55785;DHT22;41709;52.536;5.688;2023-04-23T00:46:10;8.70;91.80
55785;DHT22;41709;52.536;5.688;2023-04-23T00:48:37;8.70;91.80
55785;DHT22;41709;52.536;5.688;2023-04-23T00:51:04;8.70;91.80
55785;DHT22;41709;52.536;5.688;2023-04-23T00:53:31;8.70;91.80
55785;DHT22;41709;52.536;5.688;2023-04-23T00:55:57;8.70;91.80
55785;DHT22;41709;52.536;5.688;2023-04-23T00:58:24;8.70;91.80
55785;DHT22;41709;52.536;5.688;2023-04-23T01:00:50;8.70;91.70
55785;DHT22;41709;52.536;5.688;2023-04-23T01:03:17;8.70;91.50
55785;DHT22;41709;52.536;5.688;2023-04-23T01:05:43;8.70;91.50
55785;DHT22;41709;52.536;5.688;2023-04-23T01:08:13;8.70;91.50
55785;DHT22;41709;52.536;5.688;2023-04-23T01:10:40;8.70;91.50
55785;DHT22;41709;52.536;5.688;2023-04-23T01:13:06;8.60;91.60
55785;DHT22;41709;52.536;5.688;2023-04-23T01:15:31;8.70;91.70
55785;DHT22;41709;52.536;5.688;2023-04-23T01:17:57;8.70;91.70
55785;DHT22;41709;52.536;5.688;2023-04-23T01:20:23;8.70;91.80
55785;DHT22;41709;52.536;5.688;2023-04-23T01:22:49;8.70;91.80
55785;DHT22;41709;52.536;5.688;2023-04-23T01:25:15;8.70;91.80
55785;DHT22;41709;52.536;5.688;2023-04-23T01:27:41;8.70;91.80
55785;DHT22;41709;52.536;5.688;2023-04-23T01:30:07;8.70;91.80
55785;DHT22;41709;52.536;5.688;2023-04-23T01:32:33;8.70;91.80
55785;DHT22;41709;52.536;5.688;2023-04-23T01:34:59;8.70;91.80
55785;DHT22;41709;52.536;5.688;2023-04-23T01:37:26;8.70;91.80
55785;DHT22;41709;52.536;5.688;2023-04-23T01:39:52;8.70;91.80
55785;DHT22;41709;52.536;5.688;2023-04-23T01:42:18;8.70;91.80
55785;DHT22;41709;52.536;5.688;2023-04-23T01:44:44;8.70;91.90
55785;DHT22;41709;52.536;5.688;2023-04-23T01:47:09;8.70;91.90
55785;DHT22;41709;52.536;5.688;2023-04-23T01:49:35;8.70;91.90
55785;DHT22;41709;52.536;5.688;2023-04-23T01:52:01;8.60;91.90
55785;DHT22;41709;52.536;5.688;2023-04-23T01:54:27;8.70;91.90
55785;DHT22;41709;52.536;5.688;2023-04-23T01:56:52;8.60;91.90
55785;DHT22;41709;52.536;5.688;2023-04-23T01:59:20;8.60;91.80
55785;DHT22;41709;52.536;5.688;2023-04-23T02:01:47;8.60;91.80
55785;DHT22;41709;52.536;5.688;2023-04-23T02:04:14;8.60;91.80
55785;DHT22;41709;52.536;5.688;2023-04-23T02:06:42;8.60;91.80
55785;DHT22;41709;52.536;5.688;2023-04-23T02:09:08;8.60;91.80
55785;DHT22;41709;52.536;5.688;2023-04-23T02:11:33;8.60;91.90
55785;DHT22;41709;52.536;5.688;2023-04-23T02:14:00;8.60;91.90
55785;DHT22;41709;52.536;5.688;2023-04-23T02:16:26;8.60;92.00
55785;DHT22;41709;52.536;5.688;2023-04-23T02:18:53;8.60;92.00
55785;DHT22;41709;52.536;5.688;2023-04-23T02:21:19;8.60;92.00
55785;DHT22;41709;52.536;5.688;2023-04-23T02:23:45;8.60;92.00
55785;DHT22;41709;52.536;5.688;2023-04-23T02:26:11;8.60;92.00
55785;DHT22;41709;52.536;5.688;2023-04-23T02:28:36;8.70;92.00
55785;DHT22;41709;52.536;5.688;2023-04-23T02:31:02;8.60;91.90
55785;DHT22;41709;52.536;5.688;2023-04-23T02:33:27;8.70;91.90
55785;DHT22;41709;52.536;5.688;2023-04-23T02:35:53;8.70;91.90
55785;DHT22;41709;52.536;5.688;2023-04-23T02:38:18;8.60;91.90
55785;DHT22;41709;52.536;5.688;2023-04-23T02:40:44;8.70;91.90
55785;DHT22;41709;52.536;5.688;2023-04-23T02:43:10;8.70;91.90
55785;DHT22;41709;52.536;5.688;2023-04-23T02:45:35;8.70;92.00
55785;DHT22;41709;52.536;5.688;2023-04-23T02:48:01;8.70;92.30
55785;DHT22;41709;52.536;5.688;2023-04-23T02:50:26;8.70;92.00
55785;DHT22;41709;52.536;5.688;2023-04-23T02:52:52;8.70;92.10
55785;DHT22;41709;52.536;5.688;2023-04-23T02:55:17;8.70;92.10
55785;DHT22;41709;52.536;5.688;2023-04-23T02:57:43;8.70;92.10
55785;DHT22;41709;52.536;5.688;2023-04-23T03:00:10;8.70;92.10
55785;DHT22;41709;52.536;5.688;2023-04-23T03:02:37;8.70;92.10
55785;DHT22;41709;52.536;5.688;2023-04-23T03:05:03;8.70;92.10
55785;DHT22;41709;52.536;5.688;2023-04-23T03:07:28;8.70;92.10
55785;DHT22;41709;52.536;5.688;2023-04-23T03:09:54;8.70;92.10
55785;DHT22;41709;52.536;5.688;2023-04-23T03:12:20;8.70;92.10
55785;DHT22;41709;52.536;5.688;2023-04-23T03:14:45;8.70;92.10
55785;DHT22;41709;52.536;5.688;2023-04-23T03:17:11;8.70;92.10
55785;DHT22;41709;52.536;5.688;2023-04-23T03:19:36;8.70;92.10
55785;DHT22;41709;52.536;5.688;2023-04-23T03:22:02;8.70;92.00
55785;DHT22;41709;52.536;5.688;2023-04-23T03:24:31;8.70;92.00
55785;DHT22;41709;52.536;5.688;2023-04-23T03:26:56;8.80;92.10
55785;DHT22;41709;52.536;5.688;2023-04-23T03:29:22;8.80;92.10
55785;DHT22;41709;52.536;5.688;2023-04-23T03:31:48;8.80;92.10
55785;DHT22;41709;52.536;5.688;2023-04-23T03:34:13;8.80;92.10
55785;DHT22;41709;52.536;5.688;2023-04-23T03:36:39;8.80;92.10
55785;DHT22;41709;52.536;5.688;2023-04-23T03:39:05;8.80;92.10
55785;DHT22;41709;52.536;5.688;2023-04-23T03:41:32;8.80;92.10
55785;DHT22;41709;52.536;5.688;2023-04-23T03:43:57;8.80;92.10
55785;DHT22;41709;52.536;5.688;2023-04-23T03:46:23;8.80;92.50
55785;DHT22;41709;52.536;5.688;2023-04-23T03:48:48;8.80;92.10
55785;DHT22;41709;52.536;5.688;2023-04-23T03:51:14;8.80;92.10
55785;DHT22;41709;52.536;5.688;2023-04-23T03:53:40;8.80;92.10
55785;DHT22;41709;52.536;5.688;2023-04-23T03:56:06;8.80;92.10
55785;DHT22;41709;52.536;5.688;2023-04-23T03:58:31;8.80;92.10
55785;DHT22;41709;52.536;5.688;2023-04-23T04:00:57;8.80;92.10
55785;DHT22;41709;52.536;5.688;2023-04-23T04:03:22;8.80;92.10
55785;DHT22;41709;52.536;5.688;2023-04-23T04:05:48;8.80;92.10
55785;DHT22;41709;52.536;5.688;2023-04-23T04:08:13;8.80;92.10
55785;DHT22;41709;52.536;5.688;2023-04-23T04:10:39;8.80;92.10
55785;DHT22;41709;52.536;5.688;2023-04-23T04:13:05;8.80;92.10
55785;DHT22;41709;52.536;5.688;2023-04-23T04:15:31;8.80;92.00
55785;DHT22;41709;52.536;5.688;2023-04-23T04:17:57;8.80;92.00
55785;DHT22;41709;52.536;5.688;2023-04-23T04:20:24;8.90;92.10
55785;DHT22;41709;52.536;5.688;2023-04-23T04:22:49;8.90;92.00
55785;DHT22;41709;52.536;5.688;2023-04-23T04:25:15;8.90;92.00
55785;DHT22;41709;52.536;5.688;2023-04-23T04:27:41;8.90;92.00
55785;DHT22;41709;52.536;5.688;2023-04-23T04:30:07;8.90;92.10
55785;DHT22;41709;52.536;5.688;2023-04-23T04:32:33;8.90;92.00
55785;DHT22;41709;52.536;5.688;2023-04-23T04:34:58;8.90;92.10
55785;DHT22;41709;52.536;5.688;2023-04-23T04:37:24;8.90;92.10
55785;DHT22;41709;52.536;5.688;2023-04-23T04:39:49;8.90;92.10
55785;DHT22;41709;52.536;5.688;2023-04-23T04:42:15;8.90;92.10
55785;DHT22;41709;52.536;5.688;2023-04-23T04:44:42;8.90;92.10
55785;DHT22;41709;52.536;5.688;2023-04-23T04:47:08;8.90;92.10
55785;DHT22;41709;52.536;5.688;2023-04-23T04:49:34;8.90;92.10
55785;DHT22;41709;52.536;5.688;2023-04-23T04:52:00;9.00;92.20
55785;DHT22;41709;52.536;5.688;2023-04-23T04:54:26;9.00;92.20
55785;DHT22;41709;52.536;5.688;2023-04-23T04:56:51;9.00;92.20
55785;DHT22;41709;52.536;5.688;2023-04-23T04:59:17;9.00;92.20
55785;DHT22;41709;52.536;5.688;2023-04-23T05:01:43;9.00;92.20
55785;DHT22;41709;52.536;5.688;2023-04-23T05:04:08;9.00;92.20
55785;DHT22;41709;52.536;5.688;2023-04-23T05:06:34;9.00;92.20
55785;DHT22;41709;52.536;5.688;2023-04-23T05:09:00;9.00;92.20
55785;DHT22;41709;52.536;5.688;2023-04-23T05:11:25;9.00;92.20
55785;DHT22;41709;52.536;5.688;2023-04-23T05:13:51;9.10;92.20
55785;DHT22;41709;52.536;5.688;2023-04-23T05:16:17;9.10;92.30
55785;DHT22;41709;52.536;5.688;2023-04-23T05:18:43;9.10;92.30
55785;DHT22;41709;52.536;5.688;2023-04-23T05:21:08;9.10;92.30
55785;DHT22;41709;52.536;5.688;2023-04-23T05:23:35;9.10;92.30
55785;DHT22;41709;52.536;5.688;2023-04-23T05:26:01;9.20;92.40
55785;DHT22;41709;52.536;5.688;2023-04-23T05:28:28;9.20;92.40
55785;DHT22;41709;52.536;5.688;2023-04-23T05:30:54;9.20;92.50
55785;DHT22;41709;52.536;5.688;2023-04-23T05:33:19;9.30;92.50
55785;DHT22;41709;52.536;5.688;2023-04-23T05:35:45;9.30;92.50
55785;DHT22;41709;52.536;5.688;2023-04-23T05:38:10;9.40;92.50
55785;DHT22;41709;52.536;5.688;2023-04-23T05:40:36;9.50;92.40
55785;DHT22;41709;52.536;5.688;2023-04-23T05:43:02;9.50;92.40
55785;DHT22;41709;52.536;5.688;2023-04-23T05:45:27;9.60;92.30
55785;DHT22;41709;52.536;5.688;2023-04-23T05:47:53;9.60;92.20
55785;DHT22;41709;52.536;5.688;2023-04-23T05:50:20;9.70;92.10
55785;DHT22;41709;52.536;5.688;2023-04-23T05:52:45;9.70;92.10
55785;DHT22;41709;52.536;5.688;2023-04-23T05:55:11;9.70;92.40
55785;DHT22;41709;52.536;5.688;2023-04-23T05:57:39;9.80;92.00
55785;DHT22;41709;52.536;5.688;2023-04-23T06:00:06;9.80;92.10
55785;DHT22;41709;52.536;5.688;2023-04-23T06:02:35;9.80;92.00
55785;DHT22;41709;52.536;5.688;2023-04-23T06:05:00;9.90;92.30
55785;DHT22;41709;52.536;5.688;2023-04-23T06:07:26;9.90;91.90
55785;DHT22;41709;52.536;5.688;2023-04-23T06:09:51;10.00;91.90
55785;DHT22;41709;52.536;5.688;2023-04-23T06:12:17;10.00;91.90
55785;DHT22;41709;52.536;5.688;2023-04-23T06:14:43;10.00;91.90
55785;DHT22;41709;52.536;5.688;2023-04-23T06:17:08;10.10;91.90
55785;DHT22;41709;52.536;5.688;2023-04-23T06:19:34;10.10;92.00
55785;DHT22;41709;52.536;5.688;2023-04-23T06:21:59;10.20;92.00
55785;DHT22;41709;52.536;5.688;2023-04-23T06:24:25;10.20;91.90
55785;DHT22;41709;52.536;5.688;2023-04-23T06:26:50;10.20;91.80
55785;DHT22;41709;52.536;5.688;2023-04-23T06:29:16;10.20;91.80
55785;DHT22;41709;52.536;5.688;2023-04-23T06:31:41;10.30;91.90
55785;DHT22;41709;52.536;5.688;2023-04-23T06:34:07;10.40;91.90
55785;DHT22;41709;52.536;5.688;2023-04-23T06:36:32;10.40;91.90
55785;DHT22;41709;52.536;5.688;2023-04-23T06:38:58;10.50;91.90
55785;DHT22;41709;52.536;5.688;2023-04-23T06:41:23;10.50;91.90
55785;DHT22;41709;52.536;5.688;2023-04-23T06:43:49;10.60;91.90
55785;DHT22;41709;52.536;5.688;2023-04-23T06:46:15;10.70;91.80
55785;DHT22;41709;52.536;5.688;2023-04-23T06:48:40;10.80;91.80
55785;DHT22;41709;52.536;5.688;2023-04-23T06:51:06;10.80;91.70
55785;DHT22;41709;52.536;5.688;2023-04-23T06:53:32;10.90;91.70
55785;DHT22;41709;52.536;5.688;2023-04-23T06:55:57;11.00;91.60
55785;DHT22;41709;52.536;5.688;2023-04-23T06:58:23;11.10;91.50
55785;DHT22;41709;52.536;5.688;2023-04-23T07:00:58;11.20;91.50
55785;DHT22;41709;52.536;5.688;2023-04-23T07:03:30;11.20;91.40
55785;DHT22;41709;52.536;5.688;2023-04-23T07:05:58;11.40;91.30
55785;DHT22;41709;52.536;5.688;2023-04-23T08:11:20;12.30;87.90
55785;DHT22;41709;52.536;5.688;2023-04-23T08:13:46;12.30;88.50
55785;DHT22;41709;52.536;5.688;2023-04-23T08:16:11;12.50;87.60
55785;DHT22;41709;52.536;5.688;2023-04-23T08:18:37;12.40;87.70
55785;DHT22;41709;52.536;5.688;2023-04-23T08:21:03;12.50;88.10
55785;DHT22;41709;52.536;5.688;2023-04-23T08:23:28;12.50;87.20
55785;DHT22;41709;52.536;5.688;2023-04-23T08:25:54;12.50;86.90
55785;DHT22;41709;52.536;5.688;2023-04-23T08:28:19;12.50;86.20
55785;DHT22;41709;52.536;5.688;2023-04-23T08:30:45;12.60;86.20
55785;DHT22;41709;52.536;5.688;2023-04-23T08:33:11;12.60;86.50
55785;DHT22;41709;52.536;5.688;2023-04-23T08:35:36;12.70;85.80
55785;DHT22;41709;52.536;5.688;2023-04-23T08:38:02;12.60;86.30
55785;DHT22;41709;52.536;5.688;2023-04-23T08:40:30;12.80;86.80
55785;DHT22;41709;52.536;5.688;2023-04-23T08:42:57;12.80;86.20
55785;DHT22;41709;52.536;5.688;2023-04-23T08:45:26;12.80;85.80
55785;DHT22;41709;52.536;5.688;2023-04-23T08:47:52;12.90;86.00
55785;DHT22;41709;52.536;5.688;2023-04-23T08:50:22;13.00;86.20
55785;DHT22;41709;52.536;5.688;2023-04-23T08:52:52;13.10;86.00
55785;DHT22;41709;52.536;5.688;2023-04-23T08:55:18;13.20;86.50
55785;DHT22;41709;52.536;5.688;2023-04-23T08:57:45;13.20;85.20
55785;DHT22;41709;52.536;5.688;2023-04-23T09:00:14;13.20;84.50
55785;DHT22;41709;52.536;5.688;2023-04-23T09:02:42;13.20;84.30
55785;DHT22;41709;52.536;5.688;2023-04-23T09:05:08;13.30;85.20
55785;DHT22;41709;52.536;5.688;2023-04-23T09:07:35;13.30;85.90
55785;DHT22;41709;52.536;5.688;2023-04-23T09:10:02;13.40;85.60
55785;DHT22;41709;52.536;5.688;2023-04-23T09:12:28;13.40;84.90
55785;DHT22;41709;52.536;5.688;2023-04-23T09:14:54;13.50;84.30
55785;DHT22;41709;52.536;5.688;2023-04-23T09:17:22;13.60;84.40
55785;DHT22;41709;52.536;5.688;2023-04-23T09:19:49;13.60;84.40
55785;DHT22;41709;52.536;5.688;2023-04-23T09:22:36;13.70;84.70
55785;DHT22;41709;52.536;5.688;2023-04-23T09:25:02;13.70;84.90
55785;DHT22;41709;52.536;5.688;2023-04-23T09:27:29;13.80;83.60
55785;DHT22;41709;52.536;5.688;2023-04-23T09:29:54;13.90;83.70
55785;DHT22;41709;52.536;5.688;2023-04-23T09:32:30;14.00;82.50
55785;DHT22;41709;52.536;5.688;2023-04-23T09:34:57;14.00;81.50
55785;DHT22;41709;52.536;5.688;2023-04-23T09:37:26;14.10;82.20
55785;DHT22;41709;52.536;5.688;2023-04-23T09:39:52;14.10;81.40
55785;DHT22;41709;52.536;5.688;2023-04-23T09:42:22;14.20;80.90
55785;DHT22;41709;52.536;5.688;2023-04-23T09:45:01;14.20;80.60
55785;DHT22;41709;52.536;5.688;2023-04-23T09:47:31;14.30;82.20
55785;DHT22;41709;52.536;5.688;2023-04-23T09:49:58;14.30;81.40
55785;DHT22;41709;52.536;5.688;2023-04-23T09:52:24;14.40;79.80
55785;DHT22;41709;52.536;5.688;2023-04-23T09:54:49;14.40;79.30
55785;DHT22;41709;52.536;5.688;2023-04-23T09:57:15;14.40;78.80
55785;DHT22;41709;52.536;5.688;2023-04-23T09:59:41;14.50;79.20
55785;DHT22;41709;52.536;5.688;2023-04-23T10:02:08;14.50;78.40
55785;DHT22;41709;52.536;5.688;2023-04-23T10:04:34;14.60;78.00
55785;DHT22;41709;52.536;5.688;2023-04-23T10:07:02;14.60;77.60
55785;DHT22;41709;52.536;5.688;2023-04-23T10:09:29;14.70;77.40
55785;DHT22;41709;52.536;5.688;2023-04-23T10:11:56;14.70;77.80
55785;DHT22;41709;52.536;5.688;2023-04-23T10:14:24;14.80;77.20
55785;DHT22;41709;52.536;5.688;2023-04-23T10:16:52;14.80;77.00
55785;DHT22;41709;52.536;5.688;2023-04-23T10:19:22;14.80;76.80
55785;DHT22;41709;52.536;5.688;2023-04-23T10:21:53;14.90;75.60
55785;DHT22;41709;52.536;5.688;2023-04-23T10:24:23;15.00;75.70
55785;DHT22;41709;52.536;5.688;2023-04-23T10:26:50;15.00;76.00
55785;DHT22;41709;52.536;5.688;2023-04-23T10:29:20;15.10;75.60
55785;DHT22;41709;52.536;5.688;2023-04-23T10:31:48;15.20;75.60
55785;DHT22;41709;52.536;5.688;2023-04-23T10:34:15;15.30;73.20
55785;DHT22;41709;52.536;5.688;2023-04-23T10:36:41;15.30;73.60
55785;DHT22;41709;52.536;5.688;2023-04-23T10:39:07;15.40;74.30
55785;DHT22;41709;52.536;5.688;2023-04-23T10:41:37;15.50;74.30
55785;DHT22;41709;52.536;5.688;2023-04-23T10:44:10;15.60;73.20
55785;DHT22;41709;52.536;5.688;2023-04-23T10:46:36;15.70;72.10
55785;DHT22;41709;52.536;5.688;2023-04-23T10:49:14;15.80;71.20
55785;DHT22;41709;52.536;5.688;2023-04-23T10:52:02;15.80;70.10
55785;DHT22;41709;52.536;5.688;2023-04-23T10:54:31;15.80;70.20
55785;DHT22;41709;52.536;5.688;2023-04-23T10:57:02;15.80;69.70
55785;DHT22;41709;52.536;5.688;2023-04-23T10:59:29;15.80;70.80
55785;DHT22;41709;52.536;5.688;2023-04-23T11:01:56;15.80;69.30
55785;DHT22;41709;52.536;5.688;2023-04-23T11:04:29;15.80;70.20
55785;DHT22;41709;52.536;5.688;2023-04-23T11:06:57;15.80;71.40
55785;DHT22;41709;52.536;5.688;2023-04-23T11:09:39;15.80;71.20
55785;DHT22;41709;52.536;5.688;2023-04-23T11:14:53;15.90;68.70
55785;DHT22;41709;52.536;5.688;2023-04-23T11:20:19;16.10;68.10
55785;DHT22;41709;52.536;5.688;2023-04-23T11:22:47;16.10;67.30
55785;DHT22;41709;52.536;5.688;2023-04-23T11:25:21;16.20;69.00
55785;DHT22;41709;52.536;5.688;2023-04-23T11:27:47;16.30;67.20
55785;DHT22;41709;52.536;5.688;2023-04-23T11:30:16;16.30;68.20
55785;DHT22;41709;52.536;5.688;2023-04-23T11:32:47;16.30;66.70
55785;DHT22;41709;52.536;5.688;2023-04-23T11:35:17;16.40;68.40
55785;DHT22;41709;52.536;5.688;2023-04-23T11:37:44;16.40;67.10
55785;DHT22;41709;52.536;5.688;2023-04-23T11:40:12;16.40;66.30
55785;DHT22;41709;52.536;5.688;2023-04-23T11:42:42;16.40;67.20
55785;DHT22;41709;52.536;5.688;2023-04-23T11:45:24;16.30;67.40
55785;DHT22;41709;52.536;5.688;2023-04-23T11:47:58;16.40;65.70
55785;DHT22;41709;52.536;5.688;2023-04-23T11:50:31;16.50;65.50
55785;DHT22;41709;52.536;5.688;2023-04-23T11:53:04;16.50;65.20
55785;DHT22;41709;52.536;5.688;2023-04-23T11:55:31;16.60;65.60
55785;DHT22;41709;52.536;5.688;2023-04-23T11:57:57;16.60;65.30
55785;DHT22;41709;52.536;5.688;2023-04-23T12:00:24;16.60;63.80
55785;DHT22;41709;52.536;5.688;2023-04-23T12:05:19;16.70;64.40
55785;DHT22;41709;52.536;5.688;2023-04-23T12:07:49;16.80;65.80
55785;DHT22;41709;52.536;5.688;2023-04-23T12:10:19;16.80;67.10
55785;DHT22;41709;52.536;5.688;2023-04-23T12:12:49;16.90;65.30
55785;DHT22;41709;52.536;5.688;2023-04-23T12:15:15;17.10;66.90
55785;DHT22;41709;52.536;5.688;2023-04-23T12:17:41;17.10;61.40
55785;DHT22;41709;52.536;5.688;2023-04-23T12:20:09;17.20;61.70
55785;DHT22;41709;52.536;5.688;2023-04-23T12:22:37;17.30;62.00
55785;DHT22;41709;52.536;5.688;2023-04-23T12:25:04;17.40;61.50
55785;DHT22;41709;52.536;5.688;2023-04-23T12:27:38;17.30;62.10
55785;DHT22;41709;52.536;5.688;2023-04-23T12:30:04;17.50;62.40
55785;DHT22;41709;52.536;5.688;2023-04-23T12:32:32;17.40;61.60
55785;DHT22;41709;52.536;5.688;2023-04-23T12:34:58;17.40;62.30
55785;DHT22;41709;52.536;5.688;2023-04-23T12:37:29;17.40;62.20
55785;DHT22;41709;52.536;5.688;2023-04-23T12:39:55;17.50;63.00
55785;DHT22;41709;52.536;5.688;2023-04-23T12:42:23;17.60;62.50
55785;DHT22;41709;52.536;5.688;2023-04-23T12:44:50;17.70;62.40
55785;DHT22;41709;52.536;5.688;2023-04-23T12:47:16;17.70;61.20
55785;DHT22;41709;52.536;5.688;2023-04-23T12:49:44;17.80;59.20
55785;DHT22;41709;52.536;5.688;2023-04-23T12:52:10;17.90;59.90
55785;DHT22;41709;52.536;5.688;2023-04-23T12:54:38;17.90;59.30
55785;DHT22;41709;52.536;5.688;2023-04-23T12:57:10;17.90;59.30
55785;DHT22;41709;52.536;5.688;2023-04-23T12:59:36;18.00;60.00
55785;DHT22;41709;52.536;5.688;2023-04-23T13:02:02;18.00;59.90
55785;DHT22;41709;52.536;5.688;2023-04-23T13:04:30;18.10;59.70
55785;DHT22;41709;52.536;5.688;2023-04-23T13:06:55;18.20;61.60
55785;DHT22;41709;52.536;5.688;2023-04-23T13:09:21;18.20;59.90
55785;DHT22;41709;52.536;5.688;2023-04-23T13:11:49;18.30;58.30
55785;DHT22;41709;52.536;5.688;2023-04-23T13:14:15;18.40;58.00
55785;DHT22;41709;52.536;5.688;2023-04-23T13:16:41;18.50;57.80
55785;DHT22;41709;52.536;5.688;2023-04-23T13:19:07;18.50;57.30
55785;DHT22;41709;52.536;5.688;2023-04-23T13:21:33;18.50;56.70
55785;DHT22;41709;52.536;5.688;2023-04-23T13:23:59;18.60;56.90
55785;DHT22;41709;52.536;5.688;2023-04-23T13:26:25;18.60;56.90
55785;DHT22;41709;52.536;5.688;2023-04-23T13:28:50;18.60;57.00
55785;DHT22;41709;52.536;5.688;2023-04-23T13:31:16;18.70;58.40
55785;DHT22;41709;52.536;5.688;2023-04-23T13:33:42;18.70;57.40
55785;DHT22;41709;52.536;5.688;2023-04-23T13:36:08;18.80;57.00
55785;DHT22;41709;52.536;5.688;2023-04-23T13:38:34;18.90;56.40
55785;DHT22;41709;52.536;5.688;2023-04-23T13:40:59;19.00;56.80
55785;DHT22;41709;52.536;5.688;2023-04-23T13:43:25;19.00;56.90
55785;DHT22;41709;52.536;5.688;2023-04-23T13:45:52;19.00;55.80
55785;DHT22;41709;52.536;5.688;2023-04-23T13:48:18;18.90;56.20
55785;DHT22;41709;52.536;5.688;2023-04-23T13:50:44;18.90;56.80
55785;DHT22;41709;52.536;5.688;2023-04-23T13:53:10;18.90;56.70
55785;DHT22;41709;52.536;5.688;2023-04-23T13:55:37;18.80;56.10
55785;DHT22;41709;52.536;5.688;2023-04-23T13:58:03;18.70;56.70
55785;DHT22;41709;52.536;5.688;2023-04-23T14:00:29;18.80;56.00
55785;DHT22;41709;52.536;5.688;2023-04-23T14:02:55;18.70;56.70
55785;DHT22;41709;52.536;5.688;2023-04-23T14:05:20;18.70;57.00
55785;DHT22;41709;52.536;5.688;2023-04-23T14:07:46;18.70;57.30
55785;DHT22;41709;52.536;5.688;2023-04-23T14:10:12;18.60;56.20
55785;DHT22;41709;52.536;5.688;2023-04-23T14:12:39;18.50;54.80
55785;DHT22;41709;52.536;5.688;2023-04-23T14:15:06;18.50;55.50
55785;DHT22;41709;52.536;5.688;2023-04-23T14:17:33;18.40;56.60
55785;DHT22;41709;52.536;5.688;2023-04-23T14:19:58;18.40;56.90
55785;DHT22;41709;52.536;5.688;2023-04-23T14:22:24;18.40;58.30
55785;DHT22;41709;52.536;5.688;2023-04-23T14:24:50;18.30;57.30
55785;DHT22;41709;52.536;5.688;2023-04-23T14:27:21;18.30;57.20
55785;DHT22;41709;52.536;5.688;2023-04-23T14:32:19;18.30;57.70
55785;DHT22;41709;52.536;5.688;2023-04-23T14:34:45;18.30;57.00
55785;DHT22;41709;52.536;5.688;2023-04-23T14:37:10;18.40;58.40
55785;DHT22;41709;52.536;5.688;2023-04-23T14:39:36;18.40;58.40
55785;DHT22;41709;52.536;5.688;2023-04-23T14:42:02;18.40;58.70
55785;DHT22;41709;52.536;5.688;2023-04-23T14:44:28;18.50;59.40
55785;DHT22;41709;52.536;5.688;2023-04-23T14:46:53;18.50;59.80
55785;DHT22;41709;52.536;5.688;2023-04-23T14:49:19;18.50;60.10
55785;DHT22;41709;52.536;5.688;2023-04-23T14:51:49;18.60;59.00
55785;DHT22;41709;52.536;5.688;2023-04-23T14:54:16;18.60;58.60
55785;DHT22;41709;52.536;5.688;2023-04-23T14:56:41;18.60;58.10
55785;DHT22;41709;52.536;5.688;2023-04-23T14:59:07;18.60;58.00
55785;DHT22;41709;52.536;5.688;2023-04-23T15:01:33;18.60;59.00
55785;DHT22;41709;52.536;5.688;2023-04-23T15:03:59;18.60;58.70
55785;DHT22;41709;52.536;5.688;2023-04-23T15:06:25;18.70;59.80
55785;DHT22;41709;52.536;5.688;2023-04-23T15:08:50;18.70;58.70
55785;DHT22;41709;52.536;5.688;2023-04-23T15:11:16;18.60;58.20
55785;DHT22;41709;52.536;5.688;2023-04-23T15:14:01;18.60;57.70
55785;DHT22;41709;52.536;5.688;2023-04-23T15:16:32;18.60;57.70
55785;DHT22;41709;52.536;5.688;2023-04-23T15:19:00;18.50;57.90
55785;DHT22;41709;52.536;5.688;2023-04-23T15:21:26;18.50;57.20
55785;DHT22;41709;52.536;5.688;2023-04-23T15:23:52;18.40;58.30
55785;DHT22;41709;52.536;5.688;2023-04-23T15:26:18;18.30;59.50
55785;DHT22;41709;52.536;5.688;2023-04-23T15:28:44;18.30;61.60
55785;DHT22;41709;52.536;5.688;2023-04-23T15:31:09;18.20;63.20
55785;DHT22;41709;52.536;5.688;2023-04-23T15:33:35;18.00;62.90
55785;DHT22;41709;52.536;5.688;2023-04-23T15:36:01;17.90;64.10
55785;DHT22;41709;52.536;5.688;2023-04-23T15:38:27;17.70;64.80
55785;DHT22;41709;52.536;5.688;2023-04-23T15:40:54;17.70;65.10
55785;DHT22;41709;52.536;5.688;2023-04-23T15:43:20;17.50;65.30
55785;DHT22;41709;52.536;5.688;2023-04-23T15:45:46;17.40;65.50
55785;DHT22;41709;52.536;5.688;2023-04-23T15:48:13;17.20;67.20
55785;DHT22;41709;52.536;5.688;2023-04-23T15:50:40;17.10;68.70
55785;DHT22;41709;52.536;5.688;2023-04-23T15:53:06;17.00;69.70
55785;DHT22;41709;52.536;5.688;2023-04-23T15:55:31;16.80;71.00
55785;DHT22;41709;52.536;5.688;2023-04-23T15:57:58;16.60;71.90
55785;DHT22;41709;52.536;5.688;2023-04-23T16:00:27;16.60;74.00
55785;DHT22;41709;52.536;5.688;2023-04-23T16:02:53;16.50;73.60
55785;DHT22;41709;52.536;5.688;2023-04-23T16:05:18;16.50;74.90
55785;DHT22;41709;52.536;5.688;2023-04-23T16:07:44;16.10;75.30
55785;DHT22;41709;52.536;5.688;2023-04-23T16:10:11;15.80;76.90
55785;DHT22;41709;52.536;5.688;2023-04-23T16:12:36;15.60;77.20
55785;DHT22;41709;52.536;5.688;2023-04-23T16:15:03;15.30;77.60
55785;DHT22;41709;52.536;5.688;2023-04-23T16:17:29;15.00;78.20
55785;DHT22;41709;52.536;5.688;2023-04-23T16:19:54;14.80;79.50
55785;DHT22;41709;52.536;5.688;2023-04-23T16:22:20;14.50;80.30
55785;DHT22;41709;52.536;5.688;2023-04-23T16:24:45;14.30;81.50
55785;DHT22;41709;52.536;5.688;2023-04-23T16:27:11;14.10;82.40
55785;DHT22;41709;52.536;5.688;2023-04-23T16:29:37;14.00;83.70
55785;DHT22;41709;52.536;5.688;2023-04-23T16:32:03;13.80;84.40
55785;DHT22;41709;52.536;5.688;2023-04-23T16:34:29;13.70;85.20
55785;DHT22;41709;52.536;5.688;2023-04-23T16:36:55;13.60;85.50
55785;DHT22;41709;52.536;5.688;2023-04-23T16:39:20;13.60;86.20
55785;DHT22;41709;52.536;5.688;2023-04-23T16:41:46;13.50;86.20
55785;DHT22;41709;52.536;5.688;2023-04-23T16:44:12;13.50;86.50
55785;DHT22;41709;52.536;5.688;2023-04-23T16:46:38;13.50;86.90
55785;DHT22;41709;52.536;5.688;2023-04-23T16:49:03;13.40;86.90